createdAt,value
2023-02-15T00:00:11.391Z,1.88
2023-02-15T00:02:39.541Z,1.62
2023-02-15T00:05:10.238Z,1.68
2023-02-15T00:07:37.933Z,1.59
2023-02-15T00:10:07.209Z,1.60
2023-02-15T00:12:38.632Z,1.05
2023-02-15T00:15:06.807Z,1.20
2023-02-15T00:17:34.593Z,1.10
2023-02-15T00:20:02.340Z,1.33
2023-02-15T00:22:30.013Z,1.27
2023-02-15T00:24:57.743Z,1.68
2023-02-15T00:27:27.863Z,1.68
2023-02-15T00:29:57.769Z,1.39
2023-02-15T00:32:27.977Z,1.68
2023-02-15T00:34:55.744Z,1.65
2023-02-15T00:37:25.638Z,1.69
2023-02-15T00:39:53.375Z,1.81
2023-02-15T00:42:21.183Z,1.90
2023-02-15T00:44:48.940Z,1.96
2023-02-15T00:47:18.062Z,2.05
2023-02-15T00:49:45.904Z,1.82
2023-02-15T00:52:13.659Z,1.84
2023-02-15T00:54:43.482Z,1.87
2023-02-15T00:57:11.189Z,1.74
2023-02-15T00:59:38.935Z,1.46
2023-02-15T01:02:08.873Z,0.63
2023-02-15T01:04:38.044Z,0.61
2023-02-15T01:07:05.887Z,0.83
2023-02-15T01:09:34.774Z,1.33
2023-02-15T01:12:04.641Z,1.42
2023-02-15T01:14:32.479Z,1.26
2023-02-15T01:17:02.397Z,1.28
2023-02-15T01:19:30.192Z,1.21
2023-02-15T01:21:59.425Z,1.21
2023-02-15T01:24:27.197Z,1.43
2023-02-15T01:26:55.024Z,1.18
2023-02-15T01:29:22.988Z,1.23
2023-02-15T01:31:50.914Z,1.27
2023-02-15T01:34:18.827Z,1.63
2023-02-15T01:36:46.588Z,1.54
2023-02-15T01:39:17.822Z,1.61
2023-02-15T01:41:45.585Z,1.34
2023-02-15T01:44:50.800Z,1.48
2023-02-15T01:47:22.792Z,1.83
2023-02-15T01:49:54.945Z,1.97
2023-02-15T01:52:22.757Z,2.03
2023-02-15T01:54:54.443Z,1.54
2023-02-15T01:57:25.986Z,1.30
2023-02-15T02:00:00.193Z,1.23
2023-02-15T02:02:29.121Z,1.24
2023-02-15T02:05:00.433Z,1.31
2023-02-15T02:07:30.852Z,1.01
2023-02-15T02:10:03.552Z,1.56
2023-02-15T02:12:37.925Z,1.52
2023-02-15T02:15:06.396Z,1.27
2023-02-15T02:17:44.792Z,1.12
2023-02-15T02:20:51.103Z,1.17
2023-02-15T02:23:29.330Z,0.61
2023-02-15T02:26:30.673Z,0.05
2023-02-15T02:29:40.569Z,0.06
2023-02-15T02:32:32.667Z,-0.26
2023-02-15T02:35:13.400Z,0.19
2023-02-15T02:37:52.707Z,0.47
2023-02-15T02:40:27.829Z,0.90
2023-02-15T02:43:02.191Z,1.05
2023-02-15T02:45:36.480Z,1.16
2023-02-15T02:48:07.892Z,1.19
2023-02-15T02:50:37.044Z,1.28
2023-02-15T02:53:04.782Z,1.29
2023-02-15T02:55:36.959Z,0.66
2023-02-15T02:58:17.203Z,1.29
2023-02-15T03:00:55.594Z,1.26
2023-02-15T03:03:30.169Z,0.93
2023-02-15T03:06:02.619Z,0.68
2023-02-15T03:08:35.931Z,0.70
2023-02-15T03:11:06.057Z,0.64
2023-02-15T03:13:34.962Z,0.68
2023-02-15T03:16:21.804Z,0.59
2023-02-15T03:18:58.793Z,0.11
2023-02-15T03:21:35.730Z,0.61
2023-02-15T03:24:11.685Z,0.79
2023-02-15T03:26:42.131Z,0.73
2023-02-15T03:29:12.388Z,0.77
2023-02-15T03:31:46.381Z,1.05
2023-02-15T03:34:17.065Z,1.20
2023-02-15T03:36:54.207Z,1.36
2023-02-15T03:39:25.238Z,1.36
2023-02-15T03:42:01.017Z,1.36
2023-02-15T03:44:33.763Z,1.44
2023-02-15T03:47:08.093Z,1.27
2023-02-15T03:49:42.633Z,1.04
2023-02-15T03:52:15.006Z,1.00
2023-02-15T03:54:47.331Z,1.34
2023-02-15T03:57:36.518Z,1.45
2023-02-15T04:00:25.403Z,1.58
2023-02-15T04:03:21.702Z,1.48
2023-02-15T04:05:49.532Z,1.59
2023-02-15T04:08:41.830Z,1.73
2023-02-15T04:11:08.649Z,1.37
2023-02-15T04:13:36.506Z,1.32
2023-02-15T04:16:07.938Z,1.37
2023-02-15T04:18:57.874Z,1.62
2023-02-15T04:21:45.405Z,1.56
2023-02-15T04:24:32.987Z,1.33
2023-02-15T04:27:01.521Z,1.59
2023-02-15T04:29:29.853Z,1.73
2023-02-15T04:31:59.613Z,1.84
2023-02-15T04:34:27.488Z,1.85
2023-02-15T04:36:55.269Z,1.55
2023-02-15T04:39:24.442Z,1.39
2023-02-15T04:41:52.478Z,0.96
2023-02-15T04:44:20.820Z,0.42
2023-02-15T04:46:49.222Z,0.88
2023-02-15T04:49:17.131Z,1.24
2023-02-15T04:51:44.895Z,1.46
2023-02-15T04:54:12.644Z,1.20
2023-02-15T04:56:41.800Z,1.40
2023-02-15T04:59:11.762Z,0.96
2023-02-15T05:01:39.737Z,0.19
2023-02-15T05:04:07.610Z,0.01
2023-02-15T05:06:35.717Z,-1.02
2023-02-15T05:09:03.499Z,-0.16
2023-02-15T05:11:33.621Z,-0.06
2023-02-15T05:14:02.769Z,0.11
2023-02-15T05:16:30.684Z,-0.07
2023-02-15T05:19:00.723Z,-0.26
2023-02-15T05:21:28.613Z,0.36
2023-02-15T05:23:56.442Z,0.72
2023-02-15T05:26:43.761Z,-0.44
2023-02-15T05:29:13.030Z,0.84
2023-02-15T05:31:41.122Z,0.94
2023-02-15T05:34:09.144Z,0.44
2023-02-15T05:36:36.991Z,0.65
2023-02-15T05:39:06.817Z,0.94
2023-02-15T05:41:34.714Z,-0.61
2023-02-15T05:44:05.932Z,0.52
2023-02-15T05:46:37.133Z,0.75
2023-02-15T05:49:05.056Z,0.67
2023-02-15T05:51:32.787Z,0.83
2023-02-15T05:54:00.647Z,0.67
2023-02-15T05:56:28.574Z,0.58
2023-02-15T05:58:56.428Z,0.37
2023-02-15T06:01:24.610Z,-0.35
2023-02-15T06:03:56.753Z,-0.54
2023-02-15T06:06:24.485Z,0.17
2023-02-15T06:08:52.381Z,-0.58
2023-02-15T06:11:20.207Z,-0.81
2023-02-15T06:13:47.968Z,-0.73
2023-02-15T06:16:16.799Z,-0.55
2023-02-15T06:18:44.919Z,-0.60
2023-02-15T06:21:14.128Z,-0.31
2023-02-15T06:23:42.140Z,-0.87
2023-02-15T06:26:09.909Z,-0.78
2023-02-15T06:28:38.172Z,-0.63
2023-02-15T06:31:06.496Z,-0.70
2023-02-15T06:33:35.304Z,-0.86
2023-02-15T06:36:04.781Z,-0.88
2023-02-15T06:38:34.192Z,-0.78
2023-02-15T06:41:02.013Z,-0.89
2023-02-15T06:43:29.790Z,-1.01
2023-02-15T06:45:57.696Z,-0.95
2023-02-15T06:48:25.531Z,-0.70
2023-02-15T06:50:53.290Z,-0.32
2023-02-15T06:53:21.177Z,-0.36
2023-02-15T06:55:50.375Z,-0.80
2023-02-15T06:58:19.008Z,-0.47
2023-02-15T07:00:47.059Z,-0.82
2023-02-15T07:03:16.775Z,-0.80
2023-02-15T07:05:44.662Z,-0.28
2023-02-15T07:08:15.130Z,-0.32
2023-02-15T07:10:45.715Z,-0.72
2023-02-15T07:13:13.918Z,-0.50
2023-02-15T07:15:41.820Z,-0.23
2023-02-15T07:18:10.009Z,-0.63
2023-02-15T07:20:38.475Z,-0.50
2023-02-15T07:23:06.837Z,-1.09
2023-02-15T07:25:34.663Z,-1.11
2023-02-15T07:28:04.564Z,-0.81
2023-02-15T07:30:34.106Z,-1.02
2023-02-15T07:33:19.521Z,-0.92
2023-02-15T07:35:50.778Z,-0.88
2023-02-15T07:38:18.680Z,-0.40
2023-02-15T07:40:47.250Z,-0.27
2023-02-15T07:43:15.911Z,0.04
2023-02-15T07:45:45.589Z,0.25
2023-02-15T07:48:13.359Z,0.24
2023-02-15T07:50:43.865Z,0.18
2023-02-15T07:53:11.686Z,0.01
2023-02-15T07:55:39.818Z,0.32
2023-02-15T07:58:07.633Z,-0.44
2023-02-15T08:00:55.367Z,-0.39
2023-02-15T08:03:27.933Z,0.36
2023-02-15T08:05:59.897Z,-0.02
2023-02-15T08:08:34.243Z,0.06
2023-02-15T08:11:21.227Z,-0.10
2023-02-15T08:13:55.986Z,0.06
2023-02-15T08:16:29.213Z,-0.15
2023-02-15T08:18:59.368Z,-0.24
2023-02-15T08:21:29.594Z,0.43
2023-02-15T08:23:57.786Z,0.65
2023-02-15T08:26:26.817Z,0.96
2023-02-15T08:28:54.724Z,1.31
2023-02-15T08:31:25.362Z,1.39
2023-02-15T08:33:55.498Z,0.94
2023-02-15T08:36:26.494Z,1.56
2023-02-15T08:38:54.298Z,1.79
2023-02-15T08:41:24.183Z,1.93
2023-02-15T08:43:55.344Z,0.26
2023-02-15T08:46:24.817Z,-0.01
2023-02-15T08:48:52.842Z,0.12
2023-02-15T08:51:22.579Z,0.70
2023-02-15T08:53:54.041Z,0.07
2023-02-15T08:56:24.898Z,0.56
2023-02-15T08:58:52.735Z,0.96
2023-02-15T09:01:22.672Z,1.15
2023-02-15T09:03:53.826Z,1.09
2023-02-15T09:06:22.816Z,1.26
2023-02-15T09:08:52.403Z,1.27
2023-02-15T09:11:24.798Z,1.45
2023-02-15T09:13:55.217Z,1.74
2023-02-15T09:16:24.068Z,1.21
2023-02-15T09:18:52.870Z,1.76
2023-02-15T09:21:22.824Z,1.87
2023-02-15T09:23:53.648Z,1.89
2023-02-15T09:26:22.992Z,2.15
2023-02-15T09:28:59.234Z,2.03
2023-02-15T09:31:29.535Z,2.08
2023-02-15T09:33:58.463Z,2.13
2023-02-15T09:36:28.340Z,2.19
2023-02-15T09:38:59.308Z,2.46
2023-02-15T09:41:54.459Z,1.77
2023-02-15T09:44:33.399Z,1.66
2023-02-15T09:47:23.896Z,2.40
2023-02-15T09:50:02.570Z,2.56
2023-02-15T09:52:48.882Z,2.03
2023-02-15T09:55:40.885Z,2.15
2023-02-15T09:58:19.452Z,1.70
2023-02-15T10:00:56.363Z,2.48
2023-02-15T10:03:44.203Z,2.86
2023-02-15T10:06:30.934Z,2.75
2023-02-15T10:09:17.889Z,2.83
2023-02-15T10:12:02.960Z,3.68
2023-02-15T10:14:52.476Z,4.12
2023-02-15T10:17:37.083Z,2.86
2023-02-15T10:20:19.944Z,2.36
2023-02-15T10:23:02.562Z,2.89
2023-02-15T10:25:43.495Z,2.64
2023-02-15T10:28:18.191Z,3.65
2023-02-15T10:30:49.508Z,4.76
2023-02-15T10:33:35.252Z,5.04
2023-02-15T10:36:14.200Z,3.67
2023-02-15T10:38:44.664Z,3.51
2023-02-15T10:41:25.374Z,3.69
2023-02-15T10:44:07.270Z,3.66
2023-02-15T10:46:56.268Z,4.38
2023-02-15T10:49:47.382Z,3.31
2023-02-15T10:52:30.215Z,3.74
2023-02-15T10:55:08.141Z,4.21
2023-02-15T10:57:44.017Z,4.20
2023-02-15T11:00:20.744Z,4.58
2023-02-15T11:03:04.526Z,5.34
2023-02-15T11:05:42.366Z,5.48
2023-02-15T11:08:12.680Z,5.41
2023-02-15T11:10:45.019Z,5.69
2023-02-15T11:13:17.349Z,5.68
2023-02-15T11:15:53.547Z,6.24
2023-02-15T11:18:28.277Z,6.60
2023-02-15T11:21:01.741Z,6.88
2023-02-15T11:23:30.432Z,6.62
2023-02-15T11:26:01.722Z,5.54
2023-02-15T11:28:33.656Z,6.99
2023-02-15T11:31:14.362Z,7.89
2023-02-15T11:33:45.483Z,8.26
2023-02-15T11:36:18.211Z,8.76
2023-02-15T11:38:48.858Z,8.61
2023-02-15T11:41:21.121Z,8.85
2023-02-15T11:43:55.426Z,8.20
2023-02-15T11:46:24.843Z,8.49
2023-02-15T11:48:52.706Z,8.57
2023-02-15T11:51:24.446Z,8.15
2023-02-15T11:53:53.612Z,8.01
2023-02-15T11:56:24.491Z,9.12
2023-02-15T11:58:57.657Z,8.75
2023-02-15T12:01:32.766Z,10.12
2023-02-15T12:04:04.919Z,10.21
2023-02-15T12:06:39.550Z,10.54
2023-02-15T12:09:21.432Z,10.69
2023-02-15T12:11:50.890Z,10.25
2023-02-15T12:14:18.678Z,9.67
2023-02-15T12:16:50.342Z,9.56
2023-02-15T12:19:30.779Z,9.84
2023-02-15T12:22:00.172Z,10.45
2023-02-15T12:24:32.042Z,10.09
2023-02-15T12:27:05.382Z,10.40
2023-02-15T12:29:41.470Z,10.52
2023-02-15T12:32:19.215Z,9.78
2023-02-15T12:34:48.412Z,11.07
2023-02-15T12:37:21.958Z,11.02
2023-02-15T12:39:55.592Z,10.34
2023-02-15T12:42:24.828Z,10.33
2023-02-15T12:44:57.644Z,10.57
2023-02-15T12:47:29.387Z,10.90
2023-02-15T12:50:17.656Z,10.21
2023-02-15T12:52:49.904Z,10.40
2023-02-15T12:55:26.359Z,9.91
2023-02-15T12:58:10.058Z,9.61
2023-02-15T13:00:38.142Z,9.29
2023-02-15T13:03:19.716Z,9.90
2023-02-15T13:05:52.454Z,9.71
2023-02-15T13:08:23.005Z,9.67
2023-02-15T13:11:00.675Z,9.50
2023-02-15T13:13:31.340Z,9.64
2023-02-15T13:16:01.789Z,9.94
2023-02-15T13:18:34.186Z,10.16
2023-02-15T13:21:08.611Z,11.30
2023-02-15T13:23:36.577Z,11.27
2023-02-15T13:26:06.909Z,10.56
2023-02-15T13:28:42.516Z,9.43
2023-02-15T13:31:16.120Z,9.57
2023-02-15T13:33:50.180Z,10.70
2023-02-15T13:36:29.261Z,10.14
2023-02-15T13:39:09.679Z,11.19
2023-02-15T13:41:52.881Z,9.60
2023-02-15T13:44:30.516Z,11.15
2023-02-15T13:47:08.868Z,11.38
2023-02-15T13:49:52.973Z,11.56
2023-02-15T13:52:23.166Z,10.36
2023-02-15T13:55:01.756Z,10.53
2023-02-15T13:57:57.105Z,10.44
2023-02-15T14:00:31.039Z,10.81
2023-02-15T14:03:24.361Z,10.71
2023-02-15T14:06:05.181Z,11.26
2023-02-15T14:08:48.179Z,10.95
2023-02-15T14:11:24.604Z,10.47
2023-02-15T14:14:24.914Z,10.94
2023-02-15T14:17:07.511Z,10.61
2023-02-15T14:19:42.325Z,10.43
2023-02-15T14:22:20.775Z,10.39
2023-02-15T14:24:56.857Z,10.67
2023-02-15T14:27:30.102Z,10.91
2023-02-15T14:30:00.267Z,11.05
2023-02-15T14:32:36.541Z,10.35
2023-02-15T14:35:06.045Z,10.92
2023-02-15T14:37:45.494Z,11.29
2023-02-15T14:40:39.344Z,11.03
2023-02-15T14:43:13.050Z,11.21
2023-02-15T14:45:57.951Z,11.92
2023-02-15T14:48:32.402Z,11.73
2023-02-15T14:51:03.099Z,11.03
2023-02-15T14:53:50.136Z,11.16
2023-02-15T14:56:30.321Z,10.85
2023-02-15T14:59:17.225Z,10.97
2023-02-15T15:01:56.969Z,11.02
2023-02-15T15:04:30.669Z,11.33
2023-02-15T15:07:09.952Z,11.06
2023-02-15T15:09:41.212Z,10.90
2023-02-15T15:12:37.681Z,11.15
2023-02-15T15:15:07.301Z,11.31
2023-02-15T15:17:57.185Z,10.75
2023-02-15T15:20:45.338Z,10.98
2023-02-15T15:23:46.695Z,10.79
2023-02-15T15:26:31.819Z,11.16
2023-02-15T15:29:03.477Z,11.03
2023-02-15T15:31:44.871Z,10.34
2023-02-15T15:34:30.188Z,10.55
2023-02-15T15:37:27.821Z,10.37
2023-02-15T15:40:35.429Z,10.57
2023-02-15T15:43:45.003Z,10.48
2023-02-15T15:46:32.906Z,10.45
2023-02-15T15:49:04.925Z,10.29
2023-02-15T15:51:34.446Z,10.43
2023-02-15T15:54:04.974Z,10.47
2023-02-15T15:56:37.993Z,10.37
2023-02-15T15:59:09.898Z,10.44
2023-02-15T16:01:43.115Z,10.49
2023-02-15T16:04:14.101Z,10.36
2023-02-15T16:06:42.527Z,10.26
2023-02-15T16:09:15.777Z,10.01
2023-02-15T16:11:44.374Z,9.94
2023-02-15T16:14:19.990Z,9.65
2023-02-15T16:16:54.166Z,9.66
2023-02-15T16:19:26.611Z,9.65
2023-02-15T16:21:55.958Z,9.52
2023-02-15T16:24:34.803Z,9.25
2023-02-15T16:27:26.670Z,8.94
2023-02-15T16:29:55.919Z,8.81
2023-02-15T16:32:25.618Z,8.63
2023-02-15T16:34:57.612Z,8.55
2023-02-15T16:37:28.284Z,8.57
2023-02-15T16:39:57.459Z,8.53
2023-02-15T16:42:26.152Z,8.57
2023-02-15T16:45:03.719Z,8.69
2023-02-15T17:03:57.957Z,8.73
2023-02-15T17:06:30.693Z,8.76
2023-02-15T17:09:06.601Z,8.42
2023-02-15T17:11:42.534Z,8.17
2023-02-15T17:14:22.970Z,7.91
2023-02-15T17:16:54.654Z,8.29
2023-02-15T17:19:27.204Z,7.97
2023-02-15T17:21:57.217Z,7.75
2023-02-15T17:24:35.268Z,7.82
2023-02-15T17:27:07.055Z,7.69
2023-02-15T17:29:40.709Z,7.41
2023-02-15T17:32:18.337Z,7.30
2023-02-15T17:34:59.958Z,7.19
2023-02-15T17:37:33.472Z,6.87
2023-02-15T17:40:03.044Z,6.53
2023-02-15T17:42:31.540Z,6.55
2023-02-15T17:44:59.412Z,6.79
2023-02-15T17:47:38.917Z,6.81
2023-02-15T17:50:09.974Z,6.78
2023-02-15T17:52:38.136Z,6.18
2023-02-15T17:55:31.800Z,5.95
2023-02-15T17:58:00.627Z,5.99
2023-02-15T18:00:46.027Z,5.73
2023-02-15T18:03:31.845Z,6.23
2023-02-15T18:06:18.863Z,6.37
2023-02-15T18:09:03.962Z,5.92
2023-02-15T18:11:40.702Z,6.38
2023-02-15T18:14:11.973Z,6.49
2023-02-15T18:16:43.351Z,6.61
2023-02-15T18:19:16.826Z,5.76
2023-02-15T18:21:47.347Z,5.43
2023-02-15T18:24:18.481Z,5.53
2023-02-15T18:26:47.078Z,5.60
2023-02-15T18:29:15.180Z,5.64
2023-02-15T18:31:45.509Z,5.69
2023-02-15T18:34:23.896Z,5.11
2023-02-15T18:36:56.284Z,5.17
2023-02-15T18:39:38.490Z,5.38
2023-02-15T18:42:07.225Z,5.25
2023-02-15T18:44:35.012Z,5.01
2023-02-15T18:47:02.783Z,5.15
2023-02-15T18:49:30.617Z,5.44
2023-02-15T18:52:03.584Z,5.65
2023-02-15T18:54:31.600Z,5.06
2023-02-15T18:57:02.380Z,4.63
2023-02-15T18:59:31.137Z,4.64
2023-02-15T19:02:00.455Z,4.85
2023-02-15T19:04:28.278Z,4.82
2023-02-15T19:06:56.290Z,4.87
2023-02-15T19:09:27.763Z,4.89
2023-02-15T19:11:57.168Z,4.88
2023-02-15T19:14:28.079Z,4.61
2023-02-15T19:16:56.495Z,4.72
2023-02-15T19:19:27.162Z,4.80
2023-02-15T19:21:55.638Z,4.82
2023-02-15T19:24:28.674Z,4.43
2023-02-15T19:26:58.747Z,4.39
2023-02-15T19:29:29.341Z,4.45
2023-02-15T19:31:58.131Z,4.36
2023-02-15T19:34:26.069Z,4.28
2023-02-15T19:36:56.600Z,4.30
2023-02-15T19:39:31.070Z,4.13
2023-02-15T19:41:58.893Z,3.89
2023-02-15T19:44:26.790Z,3.88
2023-02-15T19:46:54.630Z,4.01
2023-02-15T19:49:22.426Z,4.42
2023-02-15T19:51:50.433Z,3.79
2023-02-15T19:54:28.171Z,4.08
2023-02-15T19:56:58.013Z,4.15
2023-02-15T19:59:27.528Z,4.49
2023-02-15T20:01:55.424Z,3.89
2023-02-15T20:04:23.822Z,3.98
2023-02-15T20:06:53.810Z,3.92
2023-02-15T20:09:25.392Z,3.99
2023-02-15T20:11:53.551Z,4.50
2023-02-15T20:14:23.585Z,3.77
2023-02-15T20:16:51.498Z,3.11
2023-02-15T20:19:19.452Z,3.17
2023-02-15T20:21:51.883Z,3.43
2023-02-15T20:24:22.154Z,3.63
2023-02-15T20:26:50.321Z,4.18
2023-02-15T20:29:19.793Z,4.46
2023-02-15T20:31:48.993Z,4.55
2023-02-15T20:34:16.861Z,4.30
2023-02-15T20:36:44.601Z,4.25
2023-02-15T20:39:16.399Z,4.21
2023-02-15T20:41:48.056Z,3.81
2023-02-15T20:44:22.043Z,3.05
2023-02-15T20:46:52.887Z,3.28
2023-02-15T20:49:20.781Z,3.74
2023-02-15T20:51:49.089Z,3.89
2023-02-15T20:54:18.898Z,4.04
2023-02-15T20:56:47.478Z,4.18
2023-02-15T20:59:26.777Z,4.12
2023-02-15T21:02:00.563Z,3.88
2023-02-15T21:04:31.325Z,3.97
2023-02-15T21:06:59.884Z,4.10
2023-02-15T21:09:28.179Z,3.86
2023-02-15T21:11:57.941Z,3.77
2023-02-15T21:14:28.123Z,3.61
2023-02-15T21:16:57.565Z,3.79
2023-02-15T21:19:25.923Z,3.95
2023-02-15T21:21:54.585Z,3.78
2023-02-15T21:24:25.379Z,3.09
2023-02-15T21:26:54.348Z,2.99
2023-02-15T21:29:24.130Z,3.25
2023-02-15T21:31:52.172Z,3.48
2023-02-15T21:34:21.836Z,3.23
2023-02-15T21:36:50.566Z,3.45
2023-02-15T21:39:22.139Z,3.56
2023-02-15T21:42:08.846Z,3.62
2023-02-15T21:44:57.069Z,3.59
2023-02-15T21:47:44.700Z,3.61
2023-02-15T21:50:33.067Z,3.66
2023-02-15T21:53:11.818Z,3.60
2023-02-15T21:55:39.902Z,3.57
2023-02-15T21:58:07.653Z,3.45
2023-02-15T22:00:35.414Z,3.44
2023-02-15T22:03:03.243Z,3.41
2023-02-15T22:05:34.431Z,3.58
2023-02-15T22:08:02.454Z,3.69
2023-02-15T22:10:32.776Z,3.68
2023-02-15T22:13:04.079Z,3.37
2023-02-15T22:15:35.591Z,2.89
2023-02-15T22:18:04.425Z,2.80
2023-02-15T22:20:33.665Z,3.22
2023-02-15T22:23:03.762Z,3.38
2023-02-15T22:25:31.643Z,3.20
2023-02-15T22:27:59.426Z,3.31
2023-02-15T22:30:29.764Z,3.16
2023-02-15T22:32:59.133Z,2.84
2023-02-15T22:35:29.206Z,3.05
2023-02-15T22:37:59.274Z,3.08
2023-02-15T22:40:30.049Z,2.75
2023-02-15T22:43:00.795Z,2.62
2023-02-15T22:45:29.130Z,2.69
2023-02-15T22:47:59.613Z,2.40
2023-02-15T22:50:29.708Z,2.53
2023-02-15T22:53:00.690Z,2.01
2023-02-15T22:55:32.058Z,2.13
2023-02-15T22:58:00.219Z,2.43
2023-02-15T23:00:30.569Z,2.79
2023-02-15T23:02:58.535Z,2.92
2023-02-15T23:05:30.906Z,3.07
2023-02-15T23:08:00.013Z,3.05
2023-02-15T23:10:29.969Z,2.89
2023-02-15T23:13:17.103Z,2.95
2023-02-15T23:15:48.713Z,2.80
2023-02-15T23:18:19.687Z,2.79
2023-02-15T23:20:50.141Z,2.77
2023-02-15T23:23:23.607Z,2.36
2023-02-15T23:25:51.427Z,2.62
2023-02-15T23:28:22.612Z,2.69
2023-02-15T23:30:50.827Z,2.81
2023-02-15T23:33:21.576Z,2.81
2023-02-15T23:35:49.722Z,2.73
2023-02-15T23:38:24.936Z,2.78
2023-02-15T23:41:14.257Z,2.87
2023-02-15T23:43:47.355Z,2.59
2023-02-15T23:46:27.114Z,2.66
2023-02-15T23:48:55.857Z,2.67
2023-02-15T23:51:31.073Z,2.48
2023-02-15T23:54:00.217Z,2.46
2023-02-15T23:56:27.971Z,2.61
2023-02-15T23:58:55.892Z,2.59
